createdAt,value
2022-08-20T00:02:55.244Z,99283.72
2022-08-20T00:08:00.376Z,99280.09
2022-08-20T00:13:03.323Z,99267.13
2022-08-20T00:18:07.149Z,99260.88
2022-08-20T00:23:11.881Z,99273.19
2022-08-20T00:28:15.149Z,99277.63
2022-08-20T00:33:21.382Z,99276.31
2022-08-20T00:38:26.359Z,99276.38
2022-08-20T00:43:33.289Z,99278.47
2022-08-20T00:48:38.741Z,99280.94
2022-08-20T00:53:43.082Z,99281.28
2022-08-20T00:58:46.227Z,99274.44
2022-08-20T01:03:48.935Z,99277.63
2022-08-20T01:08:53.404Z,99271.38
2022-08-20T01:13:57.535Z,99280.09
2022-08-20T01:19:01.346Z,99271.75
2022-08-20T01:24:09.418Z,99280.41
2022-08-20T01:29:22.085Z,99275.72
2022-08-20T01:34:24.730Z,99271.31
2022-08-20T01:39:30.806Z,99271.31
2022-08-20T01:44:36.055Z,99269.91
2022-08-20T01:49:43.910Z,99269.97
2022-08-20T01:54:46.983Z,99281.66
2022-08-20T01:59:51.577Z,99290.03
2022-08-20T02:04:54.245Z,99292.88
2022-08-20T02:09:56.920Z,99289.75
2022-08-20T02:15:01.021Z,99284.81
2022-08-20T02:20:07.512Z,99286.06
2022-08-20T02:25:11.369Z,99285.25
2022-08-20T02:30:27.566Z,99295.66
2022-08-20T02:35:32.198Z,99290.97
2022-08-20T02:40:37.521Z,99289.13
2022-08-20T02:45:44.511Z,99294.88
2022-08-20T02:50:48.933Z,99294.53
2022-08-20T02:55:52.312Z,99292.88
2022-08-20T03:00:56.793Z,99298.53
2022-08-20T03:06:00.387Z,99293.88
2022-08-20T03:11:03.180Z,99294.03
2022-08-20T03:16:08.274Z,99300.53
2022-08-20T03:21:14.641Z,99299.53
2022-08-20T03:26:17.624Z,99293.13
2022-08-20T03:31:21.635Z,99291.53
2022-08-20T03:36:28.023Z,99282.94
2022-08-20T03:41:32.127Z,99281.28
2022-08-20T03:46:36.151Z,99273.66
2022-08-20T03:51:56.099Z,99270.97
2022-08-20T03:57:02.820Z,99283.50
2022-08-20T04:02:16.560Z,99265.84
2022-08-20T04:07:25.547Z,99259.28
2022-08-20T04:12:28.263Z,99276.66
2022-08-20T04:17:33.456Z,99282.84
2022-08-20T04:22:36.850Z,99293.84
2022-08-20T04:27:41.764Z,99291.06
2022-08-20T04:32:45.851Z,99301.91
2022-08-20T04:37:49.275Z,99313.88
2022-08-20T04:42:53.294Z,99316.16
2022-08-20T04:47:58.184Z,99315.44
2022-08-20T04:53:00.991Z,99312.88
2022-08-20T04:58:05.658Z,99323.41
2022-08-20T05:03:09.773Z,99323.69
2022-08-20T05:08:19.632Z,99324.53
2022-08-20T05:13:27.189Z,99332.81
2022-08-20T05:18:32.884Z,99332.31
2022-08-20T05:23:37.287Z,99335.63
2022-08-20T05:28:57.372Z,99335.53
2022-08-20T05:34:03.053Z,99325.91
2022-08-20T05:39:05.759Z,99323.94
2022-08-20T05:44:13.137Z,99328.31
2022-08-20T05:49:20.078Z,99329.19
2022-08-20T05:54:23.892Z,99331.91
2022-08-20T05:59:27.552Z,99328.00
2022-08-20T06:04:34.228Z,99330.63
2022-08-20T06:09:37.009Z,99330.09
2022-08-20T06:14:39.718Z,99325.63
2022-08-20T06:19:45.281Z,99330.63
2022-08-20T06:24:49.715Z,99325.59
2022-08-20T06:29:53.302Z,99332.66
2022-08-20T06:34:57.400Z,99349.34
2022-08-20T06:40:02.674Z,99350.66
2022-08-20T06:45:06.222Z,99354.63
2022-08-20T06:50:11.898Z,99359.97
2022-08-20T06:55:16.306Z,99364.78
2022-08-20T07:00:20.922Z,99365.66
2022-08-20T07:05:24.938Z,99380.13
2022-08-20T07:10:28.530Z,99377.72
2022-08-20T07:15:32.217Z,99380.44
2022-08-20T07:20:38.344Z,99392.72
2022-08-20T07:25:42.377Z,99379.75
2022-08-20T07:31:06.541Z,99385.03
2022-08-20T07:36:17.613Z,99390.47
2022-08-20T07:41:21.010Z,99396.97
2022-08-20T07:46:23.746Z,99393.72
2022-08-20T07:51:36.609Z,99404.06
2022-08-20T07:56:39.312Z,99407.84
2022-08-20T08:01:42.205Z,99406.94
2022-08-20T08:06:46.303Z,99411.78
2022-08-20T08:11:50.977Z,99415.75
2022-08-20T08:16:54.880Z,99417.22
2022-08-20T08:21:58.967Z,99428.38
2022-08-20T08:27:01.713Z,99424.13
2022-08-20T08:32:05.657Z,99428.00
2022-08-20T08:37:09.723Z,99425.94
2022-08-20T08:42:22.477Z,99433.56
2022-08-20T08:47:29.280Z,99451.47
2022-08-20T08:52:35.845Z,99449.50
2022-08-20T08:57:38.510Z,99447.69
2022-08-20T09:02:42.491Z,99451.81
2022-08-20T09:07:50.186Z,99468.91
2022-08-20T09:12:54.114Z,99465.09
2022-08-20T09:17:56.985Z,99469.13
2022-08-20T09:23:06.217Z,99487.97
2022-08-20T09:28:08.875Z,99480.66
2022-08-20T09:33:12.658Z,99475.69
2022-08-20T09:38:16.824Z,99476.22
2022-08-20T09:43:19.568Z,99479.34
2022-08-20T09:48:29.722Z,99488.47
2022-08-20T09:53:36.502Z,99488.69
2022-08-20T09:58:46.381Z,99497.41
2022-08-20T10:03:50.392Z,99498.84
2022-08-20T10:08:54.424Z,99493.16
2022-08-20T10:13:57.137Z,99499.63
2022-08-20T10:18:59.785Z,99501.38
2022-08-20T10:24:04.289Z,99499.84
2022-08-20T10:29:06.987Z,99507.09
2022-08-20T10:34:09.880Z,99504.56
2022-08-20T10:39:14.259Z,99511.22
2022-08-20T10:44:17.638Z,99499.47
2022-08-20T10:49:20.360Z,99502.75
2022-08-20T10:54:24.995Z,99514.19
2022-08-20T10:59:27.722Z,99508.94
2022-08-20T11:04:30.428Z,99513.16
2022-08-20T11:09:34.578Z,99507.47
2022-08-20T11:14:37.332Z,99503.94
2022-08-20T11:19:41.536Z,99508.56
2022-08-20T11:24:46.061Z,99511.84
2022-08-20T11:29:50.084Z,99506.75
2022-08-20T11:34:52.989Z,99510.19
2022-08-20T11:39:57.078Z,99512.91
2022-08-20T11:44:59.839Z,99517.38
2022-08-20T11:50:04.731Z,99513.81
2022-08-20T11:55:11.441Z,99515.19
2022-08-20T12:00:18.190Z,99516.78
2022-08-20T12:05:21.470Z,99521.22
2022-08-20T12:10:26.791Z,99510.91
2022-08-20T12:15:29.756Z,99515.97
2022-08-20T12:20:32.490Z,99513.47
2022-08-20T12:25:36.591Z,99514.06
2022-08-20T12:30:39.454Z,99506.25
2022-08-20T12:35:42.273Z,99500.16
2022-08-20T12:40:46.635Z,99499.91
2022-08-20T12:45:49.392Z,99500.16
2022-08-20T12:50:52.725Z,99492.44
2022-08-20T12:55:56.850Z,99491.53
2022-08-20T13:00:59.608Z,99493.03
2022-08-20T13:06:02.655Z,99487.84
2022-08-20T13:11:07.014Z,99486.22
2022-08-20T13:16:09.798Z,99481.09
2022-08-20T13:21:12.479Z,99472.97
2022-08-20T13:26:16.553Z,99474.59
2022-08-20T13:31:19.307Z,99462.09
2022-08-20T13:36:22.853Z,99466.22
2022-08-20T13:41:27.103Z,99470.25
2022-08-20T13:46:29.859Z,99470.34
2022-08-20T13:51:32.575Z,99467.13
2022-08-20T13:56:37.060Z,99472.53
2022-08-20T14:01:39.934Z,99469.25
2022-08-20T14:06:42.826Z,99453.56
2022-08-20T14:11:46.857Z,99468.75
2022-08-20T14:16:49.549Z,99466.13
2022-08-20T14:21:52.478Z,99467.34
2022-08-20T14:26:56.498Z,99463.66
2022-08-20T14:31:59.173Z,99464.00
2022-08-20T14:37:11.760Z,99456.44
2022-08-20T14:42:16.071Z,99458.06
2022-08-20T14:47:20.625Z,99454.78
2022-08-20T14:52:28.259Z,99449.69
2022-08-20T14:57:32.750Z,99451.50
2022-08-20T15:02:35.750Z,99433.91
2022-08-20T15:07:40.610Z,99446.16
2022-08-20T15:12:44.839Z,99453.78
2022-08-20T15:17:49.258Z,99445.66
2022-08-20T15:22:53.526Z,99448.88
2022-08-20T15:28:01.725Z,99446.72
2022-08-20T15:33:04.922Z,99454.88
2022-08-20T15:38:07.807Z,99452.00
2022-08-20T15:43:11.836Z,99447.91
2022-08-20T15:48:16.739Z,99457.44
2022-08-20T15:53:25.834Z,99452.28
2022-08-20T15:58:37.386Z,99463.44
2022-08-20T16:03:59.085Z,99450.09
2022-08-20T16:09:11.704Z,99450.59
2022-08-20T16:14:18.693Z,99448.72
2022-08-20T16:19:24.479Z,99447.38
2022-08-20T16:24:27.165Z,99443.03
2022-08-20T16:29:42.861Z,99432.69
2022-08-20T16:34:48.421Z,99445.75
2022-08-20T16:39:57.183Z,99451.69
2022-08-20T16:45:01.614Z,99442.13
2022-08-20T16:50:07.486Z,99452.75
2022-08-20T16:55:10.838Z,99445.06
2022-08-20T17:00:22.134Z,99437.44
2022-08-20T17:05:26.485Z,99439.81
2022-08-20T17:10:32.973Z,99438.66
2022-08-20T17:15:37.179Z,99444.91
2022-08-20T17:20:45.296Z,99453.63
2022-08-20T17:25:58.052Z,99444.09
2022-08-20T17:31:02.114Z,99441.81
2022-08-20T17:36:11.084Z,99447.00
2022-08-20T17:41:19.320Z,99452.34
2022-08-20T17:46:24.487Z,99451.25
2022-08-20T17:51:37.748Z,99452.00
2022-08-20T17:56:42.030Z,99456.00
2022-08-20T18:01:46.191Z,99462.16
2022-08-20T18:06:53.345Z,99467.28
2022-08-20T18:12:00.750Z,99468.34
2022-08-20T18:17:17.614Z,99473.44
2022-08-20T18:22:24.603Z,99475.22
2022-08-20T18:27:29.986Z,99477.63
2022-08-20T18:32:35.949Z,99477.75
2022-08-20T18:37:39.059Z,99487.94
2022-08-20T18:42:41.961Z,99493.84
2022-08-20T18:47:46.762Z,99491.00
2022-08-20T18:53:08.530Z,99495.88
2022-08-20T18:58:13.210Z,99495.19
2022-08-20T19:03:24.621Z,99498.28
2022-08-20T19:08:44.397Z,99490.16
2022-08-20T19:14:02.286Z,99491.47
2022-08-20T19:19:14.580Z,99491.09
2022-08-20T19:24:23.641Z,99497.50
2022-08-20T19:29:29.178Z,99493.03
2022-08-20T19:34:33.818Z,99486.34
2022-08-20T19:39:37.402Z,99500.25
2022-08-20T19:44:50.967Z,99498.75
2022-08-20T19:50:00.711Z,99493.91
2022-08-20T19:55:04.231Z,99507.09
2022-08-20T20:00:12.223Z,99508.06
2022-08-20T20:05:17.718Z,99506.03
2022-08-20T20:10:32.301Z,99504.38
2022-08-20T20:15:35.661Z,99506.72
2022-08-20T20:20:55.754Z,99505.69
2022-08-20T20:26:02.247Z,99500.88
2022-08-20T20:31:08.640Z,99510.72
2022-08-20T20:36:14.032Z,99508.28
2022-08-20T20:41:23.009Z,99512.84
2022-08-20T20:46:27.557Z,99510.84
2022-08-20T20:51:33.952Z,99508.00
2022-08-20T20:56:38.777Z,99507.66
2022-08-20T21:01:49.851Z,99508.47
2022-08-20T21:06:57.305Z,99497.53
2022-08-20T21:12:00.100Z,99495.44
2022-08-20T21:17:04.847Z,99498.94
2022-08-20T21:22:09.372Z,99494.47
2022-08-20T21:27:12.674Z,99492.00
2022-08-20T21:32:17.380Z,99497.41
2022-08-20T21:37:21.381Z,99500.44
2022-08-20T21:42:28.930Z,99499.47
2022-08-20T21:47:32.244Z,99505.34
2022-08-20T21:52:37.884Z,99504.75
2022-08-20T21:57:48.473Z,99500.63
2022-08-20T22:02:51.267Z,99500.16
2022-08-20T22:07:55.356Z,99512.47
2022-08-20T22:12:58.227Z,99517.84
2022-08-20T22:18:01.076Z,99498.53
2022-08-20T22:23:06.838Z,99503.13
2022-08-20T22:28:09.599Z,99500.66
2022-08-20T22:33:14.382Z,99513.44
2022-08-20T22:38:18.581Z,99516.00
2022-08-20T22:43:21.792Z,99521.47
2022-08-20T22:48:24.541Z,99518.50
2022-08-20T22:53:28.819Z,99511.31
2022-08-20T22:58:31.606Z,99520.00
2022-08-20T23:03:39.658Z,99517.34
2022-08-20T23:08:45.366Z,99518.03
2022-08-20T23:13:48.708Z,99509.09
2022-08-20T23:18:51.405Z,99510.22
2022-08-20T23:23:55.483Z,99511.34
2022-08-20T23:28:58.179Z,99511.19
2022-08-20T23:34:00.845Z,99512.25
2022-08-20T23:39:07.436Z,99501.81
2022-08-20T23:44:25.327Z,99498.16
2022-08-20T23:49:31.390Z,99494.84
2022-08-20T23:54:35.638Z,99497.38
2022-08-20T23:59:38.291Z,99486.75
